sensor_id;sensor_type;location;lat;lon;timestamp;P1;durP1;ratioP1;P2;durP2;ratioP2
51515;SDS011;37603;55.614;37.326;2023-05-20T00:01:42;3.5;;;1.5;;
51515;SDS011;37603;55.614;37.326;2023-05-20T00:07:41;4.2;;;1.8;;
51515;SDS011;37603;55.614;37.326;2023-05-20T00:13:40;3.5;;;1.5;;
51515;SDS011;37603;55.614;37.326;2023-05-20T00:19:40;3.6;;;1.6;;
51515;SDS011;37603;55.614;37.326;2023-05-20T00:25:39;3.9;;;1.5;;
51515;SDS011;37603;55.614;37.326;2023-05-20T00:31:38;2.5;;;1.3;;
51515;SDS011;37603;55.614;37.326;2023-05-20T00:37:38;3.4;;;1.3;;
51515;SDS011;37603;55.614;37.326;2023-05-20T00:43:37;2.2;;;1.4;;
51515;SDS011;37603;55.614;37.326;2023-05-20T00:49:36;7.4;;;1.5;;
51515;SDS011;37603;55.614;37.326;2023-05-20T00:55:35;1.2;;;1.1;;
51515;SDS011;37603;55.614;37.326;2023-05-20T01:01:34;2.0;;;1.5;;
51515;SDS011;37603;55.614;37.326;2023-05-20T01:07:34;3.7;;;1.7;;
51515;SDS011;37603;55.614;37.326;2023-05-20T01:13:35;2.3;;;1.4;;
51515;SDS011;37603;55.614;37.326;2023-05-20T01:19:34;3.0;;;1.6;;
51515;SDS011;37603;55.614;37.326;2023-05-20T01:25:31;2.9;;;1.5;;
51515;SDS011;37603;55.614;37.326;2023-05-20T01:31:31;3.0;;;1.6;;
51515;SDS011;37603;55.614;37.326;2023-05-20T01:37:30;2.5;;;1.5;;
51515;SDS011;37603;55.614;37.326;2023-05-20T01:43:29;1.6;;;1.4;;
51515;SDS011;37603;55.614;37.326;2023-05-20T01:49:28;4.0;;;1.9;;
51515;SDS011;37603;55.614;37.326;2023-05-20T01:55:27;2.8;;;1.5;;
51515;SDS011;37603;55.614;37.326;2023-05-20T02:01:26;1.9;;;1.3;;
51515;SDS011;37603;55.614;37.326;2023-05-20T02:07:26;4.6;;;1.2;;
51515;SDS011;37603;55.614;37.326;2023-05-20T02:13:25;3.3;;;1.3;;
51515;SDS011;37603;55.614;37.326;2023-05-20T02:19:24;3.4;;;1.1;;
51515;SDS011;37603;55.614;37.326;2023-05-20T02:25:23;2.6;;;1.0;;
51515;SDS011;37603;55.614;37.326;2023-05-20T02:31:22;2.3;;;1.0;;
51515;SDS011;37603;55.614;37.326;2023-05-20T02:37:22;1.7;;;1.1;;
51515;SDS011;37603;55.614;37.326;2023-05-20T02:43:21;2.6;;;1.1;;
51515;SDS011;37603;55.614;37.326;2023-05-20T02:49:20;2.1;;;1.0;;
51515;SDS011;37603;55.614;37.326;2023-05-20T02:55:19;1.5;;;1.0;;
51515;SDS011;37603;55.614;37.326;2023-05-20T03:01:19;1.2;;;1.0;;
51515;SDS011;37603;55.614;37.326;2023-05-20T03:07:18;1.9;;;1.0;;
51515;SDS011;37603;55.614;37.326;2023-05-20T03:13:17;3.0;;;0.9;;
51515;SDS011;37603;55.614;37.326;2023-05-20T03:19:16;2.8;;;1.1;;
51515;SDS011;37603;55.614;37.326;2023-05-20T03:25:16;1.9;;;1.1;;
51515;SDS011;37603;55.614;37.326;2023-05-20T03:31:15;1.4;;;0.8;;
51515;SDS011;37603;55.614;37.326;2023-05-20T03:37:14;1.6;;;1.0;;
51515;SDS011;37603;55.614;37.326;2023-05-20T03:43:13;3.0;;;1.2;;
51515;SDS011;37603;55.614;37.326;2023-05-20T03:49:12;1.9;;;1.0;;
51515;SDS011;37603;55.614;37.326;2023-05-20T03:55:12;2.0;;;1.0;;
51515;SDS011;37603;55.614;37.326;2023-05-20T04:01:11;1.9;;;1.0;;
51515;SDS011;37603;55.614;37.326;2023-05-20T04:07:10;2.7;;;1.1;;
51515;SDS011;37603;55.614;37.326;2023-05-20T04:13:09;2.2;;;1.0;;
51515;SDS011;37603;55.614;37.326;2023-05-20T04:19:08;2.5;;;1.1;;
51515;SDS011;37603;55.614;37.326;2023-05-20T04:25:08;1.2;;;1.1;;
51515;SDS011;37603;55.614;37.326;2023-05-20T04:31:07;2.7;;;1.2;;
51515;SDS011;37603;55.614;37.326;2023-05-20T04:37:06;1.8;;;1.1;;
51515;SDS011;37603;55.614;37.326;2023-05-20T04:43:05;2.3;;;1.0;;
51515;SDS011;37603;55.614;37.326;2023-05-20T04:49:05;1.8;;;1.0;;
51515;SDS011;37603;55.614;37.326;2023-05-20T04:55:04;2.7;;;1.1;;
51515;SDS011;37603;55.614;37.326;2023-05-20T05:01:03;2.2;;;1.0;;
51515;SDS011;37603;55.614;37.326;2023-05-20T05:07:02;1.5;;;1.0;;
51515;SDS011;37603;55.614;37.326;2023-05-20T05:13:02;2.4;;;1.1;;
51515;SDS011;37603;55.614;37.326;2023-05-20T05:19:01;3.7;;;1.2;;
51515;SDS011;37603;55.614;37.326;2023-05-20T05:25:00;2.7;;;0.9;;
51515;SDS011;37603;55.614;37.326;2023-05-20T05:30:59;2.8;;;1.2;;
51515;SDS011;37603;55.614;37.326;2023-05-20T05:36:58;1.7;;;1.1;;
51515;SDS011;37603;55.614;37.326;2023-05-20T05:42:58;3.1;;;1.0;;
51515;SDS011;37603;55.614;37.326;2023-05-20T05:48:57;3.0;;;1.2;;
51515;SDS011;37603;55.614;37.326;2023-05-20T05:54:56;2.2;;;1.0;;
51515;SDS011;37603;55.614;37.326;2023-05-20T06:00:56;2.3;;;1.0;;
51515;SDS011;37603;55.614;37.326;2023-05-20T06:06:55;2.6;;;1.1;;
51515;SDS011;37603;55.614;37.326;2023-05-20T06:12:54;2.2;;;0.9;;
51515;SDS011;37603;55.614;37.326;2023-05-20T06:18:53;3.6;;;0.9;;
51515;SDS011;37603;55.614;37.326;2023-05-20T06:24:54;3.9;;;0.9;;
51515;SDS011;37603;55.614;37.326;2023-05-20T06:30:53;2.0;;;0.9;;
51515;SDS011;37603;55.614;37.326;2023-05-20T06:36:51;3.2;;;1.0;;
51515;SDS011;37603;55.614;37.326;2023-05-20T06:42:51;2.9;;;1.0;;
51515;SDS011;37603;55.614;37.326;2023-05-20T06:54:50;2.2;;;1.1;;
51515;SDS011;37603;55.614;37.326;2023-05-20T07:00:49;1.7;;;1.0;;
51515;SDS011;37603;55.614;37.326;2023-05-20T07:06:48;5.2;;;0.9;;
51515;SDS011;37603;55.614;37.326;2023-05-20T07:12:48;1.8;;;0.8;;
51515;SDS011;37603;55.614;37.326;2023-05-20T07:18:47;2.1;;;1.0;;
51515;SDS011;37603;55.614;37.326;2023-05-20T07:24:47;2.7;;;0.9;;
51515;SDS011;37603;55.614;37.326;2023-05-20T07:30:46;3.4;;;1.1;;
51515;SDS011;37603;55.614;37.326;2023-05-20T07:36:45;4.4;;;1.1;;
51515;SDS011;37603;55.614;37.326;2023-05-20T07:42:45;2.3;;;1.1;;
51515;SDS011;37603;55.614;37.326;2023-05-20T07:54:44;1.4;;;1.1;;
51515;SDS011;37603;55.614;37.326;2023-05-20T08:00:43;3.6;;;1.0;;
51515;SDS011;37603;55.614;37.326;2023-05-20T08:06:43;3.8;;;1.2;;
51515;SDS011;37603;55.614;37.326;2023-05-20T08:12:42;1.7;;;1.1;;
51515;SDS011;37603;55.614;37.326;2023-05-20T08:18:42;3.1;;;1.1;;
51515;SDS011;37603;55.614;37.326;2023-05-20T08:24:41;5.9;;;1.2;;
51515;SDS011;37603;55.614;37.326;2023-05-20T08:30:41;2.8;;;1.2;;
51515;SDS011;37603;55.614;37.326;2023-05-20T08:36:40;3.6;;;1.2;;
51515;SDS011;37603;55.614;37.326;2023-05-20T08:42:40;3.7;;;1.4;;
51515;SDS011;37603;55.614;37.326;2023-05-20T08:48:39;2.9;;;1.2;;
51515;SDS011;37603;55.614;37.326;2023-05-20T08:54:41;6.3;;;1.2;;
51515;SDS011;37603;55.614;37.326;2023-05-20T09:00:38;3.3;;;1.9;;
51515;SDS011;37603;55.614;37.326;2023-05-20T09:06:41;2.8;;;1.4;;
51515;SDS011;37603;55.614;37.326;2023-05-20T09:12:37;3.9;;;1.2;;
51515;SDS011;37603;55.614;37.326;2023-05-20T09:18:37;5.3;;;1.2;;
51515;SDS011;37603;55.614;37.326;2023-05-20T09:24:36;2.3;;;1.3;;
51515;SDS011;37603;55.614;37.326;2023-05-20T09:30:36;2.7;;;1.2;;
51515;SDS011;37603;55.614;37.326;2023-05-20T09:36:36;3.7;;;1.5;;
51515;SDS011;37603;55.614;37.326;2023-05-20T09:42:37;2.2;;;1.1;;
51515;SDS011;37603;55.614;37.326;2023-05-20T09:48:34;4.6;;;1.5;;
51515;SDS011;37603;55.614;37.326;2023-05-20T09:54:33;5.2;;;1.5;;
51515;SDS011;37603;55.614;37.326;2023-05-20T10:00:33;3.9;;;1.3;;
51515;SDS011;37603;55.614;37.326;2023-05-20T10:06:39;3.1;;;1.3;;
51515;SDS011;37603;55.614;37.326;2023-05-20T10:12:33;1.4;;;1.2;;
51515;SDS011;37603;55.614;37.326;2023-05-20T10:18:35;3.0;;;2.6;;
51515;SDS011;37603;55.614;37.326;2023-05-20T10:24:31;5.8;;;1.5;;
51515;SDS011;37603;55.614;37.326;2023-05-20T10:30:30;9.3;;;5.0;;
51515;SDS011;37603;55.614;37.326;2023-05-20T10:36:29;4.2;;;2.5;;
51515;SDS011;37603;55.614;37.326;2023-05-20T10:42:29;4.8;;;2.6;;
51515;SDS011;37603;55.614;37.326;2023-05-20T10:48:29;13.8;;;9.8;;
51515;SDS011;37603;55.614;37.326;2023-05-20T10:54:28;7.0;;;4.1;;
51515;SDS011;37603;55.614;37.326;2023-05-20T11:00:27;5.5;;;2.6;;
51515;SDS011;37603;55.614;37.326;2023-05-20T11:06:27;5.7;;;1.6;;
51515;SDS011;37603;55.614;37.326;2023-05-20T11:12:26;2.4;;;1.3;;
51515;SDS011;37603;55.614;37.326;2023-05-20T11:24:26;5.1;;;3.4;;
51515;SDS011;37603;55.614;37.326;2023-05-20T11:30:25;5.9;;;4.3;;
51515;SDS011;37603;55.614;37.326;2023-05-20T11:36:24;4.2;;;2.1;;
51515;SDS011;37603;55.614;37.326;2023-05-20T11:42:23;5.4;;;1.9;;
51515;SDS011;37603;55.614;37.326;2023-05-20T11:48:23;4.1;;;1.7;;
51515;SDS011;37603;55.614;37.326;2023-05-20T11:54:22;5.8;;;2.0;;
51515;SDS011;37603;55.614;37.326;2023-05-20T12:00:22;4.3;;;2.0;;
51515;SDS011;37603;55.614;37.326;2023-05-20T12:06:21;3.9;;;1.9;;
51515;SDS011;37603;55.614;37.326;2023-05-20T12:12:21;3.5;;;1.7;;
51515;SDS011;37603;55.614;37.326;2023-05-20T12:18:21;12.0;;;2.4;;
51515;SDS011;37603;55.614;37.326;2023-05-20T12:24:20;4.5;;;2.0;;
51515;SDS011;37603;55.614;37.326;2023-05-20T12:30:20;5.4;;;1.8;;
51515;SDS011;37603;55.614;37.326;2023-05-20T12:36:19;3.8;;;1.6;;
51515;SDS011;37603;55.614;37.326;2023-05-20T12:42:18;4.9;;;1.8;;
51515;SDS011;37603;55.614;37.326;2023-05-20T12:48:17;5.7;;;2.0;;
51515;SDS011;37603;55.614;37.326;2023-05-20T12:54:18;3.9;;;2.0;;
51515;SDS011;37603;55.614;37.326;2023-05-20T13:00:16;4.9;;;1.8;;
51515;SDS011;37603;55.614;37.326;2023-05-20T13:06:16;5.2;;;2.0;;
51515;SDS011;37603;55.614;37.326;2023-05-20T13:12:15;5.8;;;2.3;;
51515;SDS011;37603;55.614;37.326;2023-05-20T13:18:15;5.4;;;2.4;;
51515;SDS011;37603;55.614;37.326;2023-05-20T13:24:14;10.1;;;5.8;;
51515;SDS011;37603;55.614;37.326;2023-05-20T13:30:13;6.6;;;2.4;;
51515;SDS011;37603;55.614;37.326;2023-05-20T13:36:13;4.6;;;1.9;;
51515;SDS011;37603;55.614;37.326;2023-05-20T13:42:12;5.8;;;2.3;;
51515;SDS011;37603;55.614;37.326;2023-05-20T13:48:12;3.1;;;1.8;;
51515;SDS011;37603;55.614;37.326;2023-05-20T13:54:11;2.5;;;1.8;;
51515;SDS011;37603;55.614;37.326;2023-05-20T14:00:11;2.4;;;1.6;;
51515;SDS011;37603;55.614;37.326;2023-05-20T14:06:10;5.1;;;2.0;;
51515;SDS011;37603;55.614;37.326;2023-05-20T14:12:09;4.0;;;2.0;;
51515;SDS011;37603;55.614;37.326;2023-05-20T14:18:09;3.4;;;1.7;;
51515;SDS011;37603;55.614;37.326;2023-05-20T14:24:08;3.6;;;1.8;;
51515;SDS011;37603;55.614;37.326;2023-05-20T14:30:08;3.5;;;1.9;;
51515;SDS011;37603;55.614;37.326;2023-05-20T14:36:07;2.8;;;1.9;;
51515;SDS011;37603;55.614;37.326;2023-05-20T14:42:06;3.8;;;2.1;;
51515;SDS011;37603;55.614;37.326;2023-05-20T14:48:06;3.9;;;2.1;;
51515;SDS011;37603;55.614;37.326;2023-05-20T14:54:05;5.5;;;2.6;;
51515;SDS011;37603;55.614;37.326;2023-05-20T15:00:05;4.6;;;2.3;;
51515;SDS011;37603;55.614;37.326;2023-05-20T15:06:04;3.8;;;2.1;;
51515;SDS011;37603;55.614;37.326;2023-05-20T15:12:04;5.1;;;2.0;;
51515;SDS011;37603;55.614;37.326;2023-05-20T15:18:03;4.3;;;2.2;;
51515;SDS011;37603;55.614;37.326;2023-05-20T15:24:02;5.2;;;2.5;;
51515;SDS011;37603;55.614;37.326;2023-05-20T15:30:02;3.9;;;2.1;;
51515;SDS011;37603;55.614;37.326;2023-05-20T15:36:01;4.3;;;1.7;;
51515;SDS011;37603;55.614;37.326;2023-05-20T15:42:00;3.9;;;2.5;;
51515;SDS011;37603;55.614;37.326;2023-05-20T15:48:00;7.2;;;2.8;;
51515;SDS011;37603;55.614;37.326;2023-05-20T15:53:59;3.4;;;2.1;;
51515;SDS011;37603;55.614;37.326;2023-05-20T15:59:59;2.9;;;2.1;;
51515;SDS011;37603;55.614;37.326;2023-05-20T16:05:58;4.0;;;2.3;;
51515;SDS011;37603;55.614;37.326;2023-05-20T16:11:57;3.8;;;2.7;;
51515;SDS011;37603;55.614;37.326;2023-05-20T16:17:57;2.9;;;2.0;;
51515;SDS011;37603;55.614;37.326;2023-05-20T16:23:57;5.0;;;2.0;;
51515;SDS011;37603;55.614;37.326;2023-05-20T16:29:56;4.9;;;2.7;;
51515;SDS011;37603;55.614;37.326;2023-05-20T16:35:55;5.9;;;3.2;;
51515;SDS011;37603;55.614;37.326;2023-05-20T16:41:55;6.4;;;3.6;;
51515;SDS011;37603;55.614;37.326;2023-05-20T16:47:54;25.9;;;10.8;;
51515;SDS011;37603;55.614;37.326;2023-05-20T16:53:54;7.9;;;4.0;;
51515;SDS011;37603;55.614;37.326;2023-05-20T16:59:53;6.4;;;4.3;;
51515;SDS011;37603;55.614;37.326;2023-05-20T17:05:52;4.2;;;2.8;;
51515;SDS011;37603;55.614;37.326;2023-05-20T17:11:52;7.3;;;2.6;;
51515;SDS011;37603;55.614;37.326;2023-05-20T17:17:51;6.9;;;2.8;;
51515;SDS011;37603;55.614;37.326;2023-05-20T17:23:51;6.3;;;3.1;;
51515;SDS011;37603;55.614;37.326;2023-05-20T17:29:50;11.2;;;7.7;;
51515;SDS011;37603;55.614;37.326;2023-05-20T17:35:50;23.9;;;16.1;;
51515;SDS011;37603;55.614;37.326;2023-05-20T17:41:49;8.6;;;5.5;;
51515;SDS011;37603;55.614;37.326;2023-05-20T17:47:48;14.4;;;8.3;;
51515;SDS011;37603;55.614;37.326;2023-05-20T17:53:48;5.6;;;3.9;;
51515;SDS011;37603;55.614;37.326;2023-05-20T17:59:47;7.0;;;4.5;;
51515;SDS011;37603;55.614;37.326;2023-05-20T18:05:46;4.3;;;2.6;;
51515;SDS011;37603;55.614;37.326;2023-05-20T18:11:46;7.7;;;3.6;;
51515;SDS011;37603;55.614;37.326;2023-05-20T18:17:45;6.5;;;2.9;;
51515;SDS011;37603;55.614;37.326;2023-05-20T18:23:45;5.1;;;3.1;;
51515;SDS011;37603;55.614;37.326;2023-05-20T18:29:44;7.6;;;3.3;;
51515;SDS011;37603;55.614;37.326;2023-05-20T18:35:43;7.0;;;3.4;;
51515;SDS011;37603;55.614;37.326;2023-05-20T18:41:43;9.7;;;4.7;;
51515;SDS011;37603;55.614;37.326;2023-05-20T18:47:42;5.2;;;3.2;;
51515;SDS011;37603;55.614;37.326;2023-05-20T18:53:41;3.6;;;3.0;;
51515;SDS011;37603;55.614;37.326;2023-05-20T18:59:41;5.0;;;2.7;;
51515;SDS011;37603;55.614;37.326;2023-05-20T19:05:40;4.2;;;3.0;;
51515;SDS011;37603;55.614;37.326;2023-05-20T19:11:40;4.9;;;3.0;;
51515;SDS011;37603;55.614;37.326;2023-05-20T19:17:39;5.6;;;3.2;;
51515;SDS011;37603;55.614;37.326;2023-05-20T19:23:38;5.0;;;2.7;;
51515;SDS011;37603;55.614;37.326;2023-05-20T19:29:37;4.8;;;3.2;;
51515;SDS011;37603;55.614;37.326;2023-05-20T19:35:37;5.0;;;3.1;;
51515;SDS011;37603;55.614;37.326;2023-05-20T19:41:36;5.9;;;3.8;;
51515;SDS011;37603;55.614;37.326;2023-05-20T19:47:35;4.9;;;3.9;;
51515;SDS011;37603;55.614;37.326;2023-05-20T19:53:34;5.1;;;4.3;;
51515;SDS011;37603;55.614;37.326;2023-05-20T19:59:34;6.7;;;4.6;;
51515;SDS011;37603;55.614;37.326;2023-05-20T20:05:33;6.6;;;5.4;;
51515;SDS011;37603;55.614;37.326;2023-05-20T20:11:32;7.6;;;6.1;;
51515;SDS011;37603;55.614;37.326;2023-05-20T20:17:32;10.4;;;7.6;;
51515;SDS011;37603;55.614;37.326;2023-05-20T20:23:31;10.7;;;9.7;;
51515;SDS011;37603;55.614;37.326;2023-05-20T20:29:30;8.3;;;6.2;;
51515;SDS011;37603;55.614;37.326;2023-05-20T20:35:29;8.7;;;6.8;;
51515;SDS011;37603;55.614;37.326;2023-05-20T20:41:29;7.4;;;6.6;;
51515;SDS011;37603;55.614;37.326;2023-05-20T20:47:29;8.5;;;6.9;;
51515;SDS011;37603;55.614;37.326;2023-05-20T20:53:27;9.6;;;6.3;;
51515;SDS011;37603;55.614;37.326;2023-05-20T20:59:27;8.9;;;6.7;;
51515;SDS011;37603;55.614;37.326;2023-05-20T21:05:26;9.3;;;6.0;;
51515;SDS011;37603;55.614;37.326;2023-05-20T21:11:25;10.1;;;6.2;;
51515;SDS011;37603;55.614;37.326;2023-05-20T21:23:24;10.0;;;6.7;;
51515;SDS011;37603;55.614;37.326;2023-05-20T21:29:23;7.7;;;6.0;;
51515;SDS011;37603;55.614;37.326;2023-05-20T21:35:22;8.1;;;5.4;;
51515;SDS011;37603;55.614;37.326;2023-05-20T21:41:21;8.5;;;6.1;;
51515;SDS011;37603;55.614;37.326;2023-05-20T21:47:21;7.5;;;6.0;;
51515;SDS011;37603;55.614;37.326;2023-05-20T21:53:20;8.2;;;5.2;;
51515;SDS011;37603;55.614;37.326;2023-05-20T21:59:19;7.7;;;5.9;;
51515;SDS011;37603;55.614;37.326;2023-05-20T22:05:18;7.9;;;6.0;;
51515;SDS011;37603;55.614;37.326;2023-05-20T22:11:18;7.6;;;5.6;;
51515;SDS011;37603;55.614;37.326;2023-05-20T22:17:17;10.2;;;6.1;;
51515;SDS011;37603;55.614;37.326;2023-05-20T22:23:16;9.3;;;6.1;;
51515;SDS011;37603;55.614;37.326;2023-05-20T22:29:15;7.0;;;6.2;;
51515;SDS011;37603;55.614;37.326;2023-05-20T22:35:15;10.5;;;7.7;;
51515;SDS011;37603;55.614;37.326;2023-05-20T22:41:14;9.2;;;7.1;;
51515;SDS011;37603;55.614;37.326;2023-05-20T22:47:13;8.6;;;7.2;;
51515;SDS011;37603;55.614;37.326;2023-05-20T22:53:12;12.5;;;7.7;;
51515;SDS011;37603;55.614;37.326;2023-05-20T22:59:12;9.3;;;7.5;;
51515;SDS011;37603;55.614;37.326;2023-05-20T23:05:11;10.5;;;7.7;;
51515;SDS011;37603;55.614;37.326;2023-05-20T23:11:10;9.7;;;7.9;;
51515;SDS011;37603;55.614;37.326;2023-05-20T23:17:09;9.2;;;7.4;;
51515;SDS011;37603;55.614;37.326;2023-05-20T23:29:08;9.5;;;7.6;;
51515;SDS011;37603;55.614;37.326;2023-05-20T23:35:08;10.0;;;8.4;;
51515;SDS011;37603;55.614;37.326;2023-05-20T23:41:06;11.3;;;8.5;;
51515;SDS011;37603;55.614;37.326;2023-05-20T23:47:05;11.7;;;9.1;;
51515;SDS011;37603;55.614;37.326;2023-05-20T23:53:05;10.9;;;8.8;;
51515;SDS011;37603;55.614;37.326;2023-05-20T23:59:04;10.8;;;8.9;;
